Hominy, Oklahoma
Current Conditions -  °F | °C
As of 2:35 AM on Saturday 29 Nov 2014 (Local Time) from KOWP Reporting Station
Clear Clear  
Wind Chill: 58°   Ceiling: Unl
Heat Index: 58°   Visibility: 10mi
Dew Point: 47°   Wind: 10mph
Humidity: 68%   Direction: 190°S
Pressure: 29.76"   Gusts: 16mph
Location:  36.41°N, 96.4°W
Report Text: KOWP 290835Z AUTO 19009G14KT 10SM CLR 14/08 A2976 RMK AO2 T01420083
Loading
Personal Weather Stations






























Interactive Weather Map New forecast layout! Learn more

10-Day Weather Forecast

Advertisements
Track Severe Weather on mobile